Nestor — V2FB3 — position and weather

sailwx.info

Track history (hours):
 
Tides and Currents Weather Stations Pressure Air Temp Water Temp Dewpoint Dewpoint Depression Visibility Wind Speed Wind Dir Waves Ship Positions

Nestor

Last reported at 2018-Apr-21 22:50 UTC. Time now 2018-Apr-22 03:06 UTC.
Position N 51°24' W 003°09'.

Length 88 m; draft 3.3 m.

Type: Cargo ship. MMSI: 305620000.

Date/timePositionNaut miles runAvg speedWind from/ knotsBaromVisibWave heightAir tempDewpointWater temp
2018-Apr-21 22:50N 51°24' W 003°09'4 9.9
2018-Apr-21 22:28N 51°25' W 003°03'4 9.1
2018-Apr-21 22:00N 51°27' W 002°57'4 8.5
2018-Apr-21 21:30N 51°28' W 002°51'3 6.9
2018-Apr-21 21:00N 51°30' W 002°46'2 4.2
2018-Apr-21 20:30N 51°30' W 002°43'0 0.9
2018-Apr-21 19:59N 51°31' W 002°42'0 0.0
2018-Apr-21 19:29N 51°31' W 002°42'0 0.0
2018-Apr-21 18:59N 51°31' W 002°42'0 0.0
2018-Apr-21 18:29N 51°31' W 002°42'0 0.0
2018-Apr-21 17:56N 51°31' W 002°42'0 0.0
2018-Apr-21 17:29N 51°31' W 002°42'0 0.0
2018-Apr-21 16:59N 51°31' W 002°42'0 0.0
2018-Apr-21 16:29N 51°31' W 002°42'0 0.0
2018-Apr-21 15:59N 51°31' W 002°42'0 0.0
2018-Apr-21 15:29N 51°31' W 002°42'0 0.0
2018-Apr-21 14:59N 51°31' W 002°42'0 0.0
2018-Apr-21 14:29N 51°31' W 002°42'0 0.0
2018-Apr-21 13:59N 51°31' W 002°42'0 0.0
2018-Apr-21 13:29N 51°31' W 002°42'0 0.0
2018-Apr-21 12:59N 51°31' W 002°42'0 0.0
2018-Apr-21 12:29N 51°31' W 002°42'0 0.0
2018-Apr-21 11:59N 51°31' W 002°42'0 0.0
2018-Apr-21 11:29N 51°31' W 002°42'0 0.0
2018-Apr-21 10:59N 51°31' W 002°42'0 0.0
2018-Apr-21 10:29N 51°31' W 002°42'0 0.0
2018-Apr-21 09:59N 51°31' W 002°42'0 0.0
2018-Apr-21 09:29N 51°31' W 002°42'0 1.0
2018-Apr-21 09:00N 51°30' W 002°43'0 0.4
2018-Apr-21 08:30N 51°30' W 002°43'2 3.3
2018-Apr-21 08:00N 51°30' W 002°46'612.3
2018-Apr-21 07:30N 51°28' W 002°54'911.8
2018-Apr-21 06:46N 51°22' W 003°06'511.6
2018-Apr-21 06:20N 51°21' W 003°13'11 1.9
2018-Apr-21 00:37N 51°21' W 003°31'20 3.3
2018-Apr-20 18:28N 51°24' W 004°03'911.9
2018-Apr-20 17:41N 51°25' W 004°17'411.5
2018-Apr-20 17:19N 51°26' W 004°24'311.1
2018-Apr-20 17:00N 51°27' W 004°30'510.5
2018-Apr-20 16:30N 51°27' W 004°38'5 9.8
2018-Apr-20 16:01N 51°28' W 004°46'5 9.2
2018-Apr-20 15:30N 51°29' W 004°53'5 9.7
2018-Apr-20 15:01N 51°30' W 005°01'5 9.9
2018-Apr-20 14:30N 51°31' W 005°09'5 9.6
2018-Apr-20 14:00N 51°32' W 005°16'5 9.1
2018-Apr-20 13:30N 51°34' W 005°23'4 8.3
2018-Apr-20 13:00N 51°35' W 005°29'4 7.1
2018-Apr-20 12:30N 51°36' W 005°35'5 7.2
2018-Apr-20 11:52N 51°37' W 005°42'26 5.7
2018-Apr-20 07:17N 52°02' W 005°49'3 9.1
2018-Apr-20 06:55N 52°06' W 005°47'4 9.7
2018-Apr-20 06:30N 52°09' W 005°45'510.3
2018-Apr-20 06:00N 52°14' W 005°43'3411.6
2018-Apr-20 03:06N 52°46' W 005°26'110.9
2018-Apr-20 03:00N 52°47' W 005°25'510.4
2018-Apr-20 02:30N 52°52' W 005°22'83 8.3
2018-Apr-19 16:34N 54°15' W 005°16'1 8.5
2018-Apr-19 16:27N 54°16' W 005°16'4 8.3
2018-Apr-19 16:00N 54°20' W 005°16'4 8.4
2018-Apr-19 15:30N 54°24' W 005°16'4 8.0
2018-Apr-19 15:00N 54°28' W 005°15'4 7.7
2018-Apr-19 14:30N 54°32' W 005°15'4 7.5
2018-Apr-19 14:01N 54°35' W 005°16'4 8.5
2018-Apr-19 13:31N 54°38' W 005°21'4 8.9
2018-Apr-19 13:00N 54°41' W 005°27'4 8.9
2018-Apr-19 12:30N 54°43' W 005°34'5 9.1
2018-Apr-19 12:00N 54°43' W 005°42'2 3.2
2018-Apr-19 11:28N 54°43' W 005°45'0 0.0
2018-Apr-19 10:58N 54°43' W 005°45'0 0.0
2018-Apr-19 10:28N 54°43' W 005°45'0 0.0
2018-Apr-19 09:58N 54°43' W 005°45'0 0.0
2018-Apr-19 09:28N 54°43' W 005°45'0 0.0
2018-Apr-19 08:58N 54°43' W 005°45'0 0.0
2018-Apr-19 08:28N 54°43' W 005°45'0 0.0
2018-Apr-19 07:58N 54°43' W 005°45'0 0.0
2018-Apr-19 07:28N 54°43' W 005°45'0 0.0
2018-Apr-19 06:58N 54°43' W 005°45'0 0.0
2018-Apr-19 06:28N 54°43' W 005°45'0 0.0
2018-Apr-19 05:58N 54°43' W 005°45'0 0.0
2018-Apr-19 05:28N 54°43' W 005°45'0 1.0
2018-Apr-19 05:01N 54°43' W 005°44'2 3.2
2018-Apr-19 04:31N 54°43' W 005°41'1 2.6
2018-Apr-19 03:58N 54°41' W 005°41'0 0.1
2018-Apr-19 03:28N 54°41' W 005°41'0 0.1
2018-Apr-19 02:58N 54°41' W 005°41'0 0.0
2018-Apr-19 02:28N 54°41' W 005°41'0 0.1
2018-Apr-19 01:58N 54°41' W 005°41'0 0.1
2018-Apr-19 01:28N 54°41' W 005°41'0 0.0
2018-Apr-19 00:58N 54°41' W 005°41'0 0.0
2018-Apr-19 00:28N 54°41' W 005°41'0 0.0
2018-Apr-18 23:58N 54°41' W 005°41'0 0.1
2018-Apr-18 23:28N 54°41' W 005°41'0 0.0
2018-Apr-18 22:58N 54°41' W 005°41'0 0.0
2018-Apr-18 22:28N 54°41' W 005°41'0 0.1
2018-Apr-18 21:58N 54°41' W 005°41'0 0.0
2018-Apr-18 21:28N 54°41' W 005°41'0 0.1
2018-Apr-18 20:58N 54°41' W 005°41'0 0.1
2018-Apr-18 20:28N 54°41' W 005°41'0 0.1
2018-Apr-18 19:58N 54°41' W 005°41'0 0.1
2018-Apr-18 19:28N 54°41' W 005°41'0 0.1
2018-Apr-18 18:58N 54°41' W 005°41'0 0.0
2018-Apr-18 18:28N 54°41' W 005°41'0 0.1
2018-Apr-18 17:58N 54°41' W 005°41'0 0.7
2018-Apr-18 17:30N 54°42' W 005°41'4 7.8
2018-Apr-18 17:00N 54°45' W 005°38'5 9.2
2018-Apr-18 16:30N 54°49' W 005°35'4 7.1
2018-Apr-18 15:58N 54°53' W 005°32'  
2018-Apr-13 10:07N 55°15' W 005°58'1 8.4
2018-Apr-13 10:00N 55°15' W 005°59'5 9.2
2018-Apr-13 09:30N 55°19' W 006°03'6 9.0
2018-Apr-13 08:51N 55°22' W 006°12'3 9.5
2018-Apr-13 08:30N 55°23' W 006°18'510.1
2018-Apr-13 08:00N 55°24' W 006°26'510.3
2018-Apr-13 07:30N 55°26' W 006°35'510.5
2018-Apr-13 07:00N 55°27' W 006°44'510.7
2018-Apr-13 06:30N 55°28' W 006°53'610.7
2018-Apr-13 05:55N 55°30' W 007°04'610.0
2018-Apr-13 05:21N 55°32' W 007°13'4 9.7
2018-Apr-13 04:55N 55°31' W 007°21'7 9.6
2018-Apr-13 04:12N 55°29' W 007°32'2 9.2
2018-Apr-13 03:59N 55°29' W 007°36'6 9.0
2018-Apr-13 03:18N 55°27' W 007°46'3 9.0
2018-Apr-13 02:59N 55°26' W 007°51'6 9.0
2018-Apr-13 02:19N 55°24' W 008°01'3 8.8
2018-Apr-13 01:59N 55°23' W 008°06'4 8.7
2018-Apr-13 01:29N 55°22' W 008°13'4 8.7
2018-Apr-13 01:00N 55°21' W 008°20'5 8.7
2018-Apr-13 00:24N 55°19' W 008°29'48 8.7
2018-Apr-12 18:57N 54°47' W 009°31'4 8.7
2018-Apr-12 18:30N 54°44' W 009°36'4 8.6
2018-Apr-12 18:00N 54°41' W 009°41'14 8.4
2018-Apr-12 16:16N 54°32' W 009°60'10 8.2
2018-Apr-12 15:03N 54°25' W 010°13'1 8.6
2018-Apr-12 14:59N 54°25' W 010°13'5 8.6
2018-Apr-12 14:23N 54°21' W 010°20'5 8.6
2018-Apr-12 13:48N 54°16' W 010°23'4 8.9
2018-Apr-12 13:23N 54°13' W 010°23'4 8.8
2018-Apr-12 12:57N 54°09' W 010°25'4 8.8
2018-Apr-12 12:30N 54°05' W 010°26'5 9.2
2018-Apr-12 11:55N 53°60' W 010°27'4 8.8
2018-Apr-12 11:30N 53°56' W 010°28'4 8.9
2018-Apr-12 11:00N 53°52' W 010°29'4 8.5
2018-Apr-12 10:30N 53°47' W 010°30'4 8.5
2018-Apr-12 10:00N 53°43' W 010°31'4 8.6
2018-Apr-12 09:30N 53°39' W 010°32'4 8.7
2018-Apr-12 09:00N 53°35' W 010°31'5 8.7
2018-Apr-12 08:29N 53°30' W 010°30'5 9.0
2018-Apr-12 07:53N 53°25' W 010°29'5 8.7
2018-Apr-12 07:21N 53°20' W 010°27'3 8.4
2018-Apr-12 06:57N 53°18' W 010°24'4 9.0
2018-Apr-12 06:30N 53°15' W 010°19'5 8.8
2018-Apr-12 05:54N 53°12' W 010°12'4 9.0
2018-Apr-12 05:29N 53°12' W 010°06'6 9.0
2018-Apr-12 04:47N 53°12' W 009°55'3 8.9
2018-Apr-12 04:30N 53°11' W 009°51'  
Track history (hours):
 
Tides and Currents Weather Stations Pressure Air Temp Water Temp Dewpoint Dewpoint Depression Visibility Wind Speed Wind Dir Waves Ship Positions

Nestor

Last reported at 2018-Apr-21 22:50 UTC. Time now 2018-Apr-22 03:06 UTC.
Position N 51°24' W 003°09'.

Length 88 m; draft 3.3 m.

Type: Cargo ship. MMSI: 305620000.

Date/timePositionNaut miles runAvg speedWind from/ knotsBaromVisibWave heightAir tempDewpointWater temp
2018-Apr-21 22:50N 51°24' W 003°09'4 9.9
2018-Apr-21 22:28N 51°25' W 003°03'4 9.1
2018-Apr-21 22:00N 51°27' W 002°57'4 8.5
2018-Apr-21 21:30N 51°28' W 002°51'3 6.9
2018-Apr-21 21:00N 51°30' W 002°46'2 4.2
2018-Apr-21 20:30N 51°30' W 002°43'0 0.9
2018-Apr-21 19:59N 51°31' W 002°42'0 0.0
2018-Apr-21 19:29N 51°31' W 002°42'0 0.0
2018-Apr-21 18:59N 51°31' W 002°42'0 0.0
2018-Apr-21 18:29N 51°31' W 002°42'0 0.0
2018-Apr-21 17:56N 51°31' W 002°42'0 0.0
2018-Apr-21 17:29N 51°31' W 002°42'0 0.0
2018-Apr-21 16:59N 51°31' W 002°42'0 0.0
2018-Apr-21 16:29N 51°31' W 002°42'0 0.0
2018-Apr-21 15:59N 51°31' W 002°42'0 0.0
2018-Apr-21 15:29N 51°31' W 002°42'0 0.0
2018-Apr-21 14:59N 51°31' W 002°42'0 0.0
2018-Apr-21 14:29N 51°31' W 002°42'0 0.0
2018-Apr-21 13:59N 51°31' W 002°42'0 0.0
2018-Apr-21 13:29N 51°31' W 002°42'0 0.0
2018-Apr-21 12:59N 51°31' W 002°42'0 0.0
2018-Apr-21 12:29N 51°31' W 002°42'0 0.0
2018-Apr-21 11:59N 51°31' W 002°42'0 0.0
2018-Apr-21 11:29N 51°31' W 002°42'0 0.0
2018-Apr-21 10:59N 51°31' W 002°42'0 0.0
2018-Apr-21 10:29N 51°31' W 002°42'0 0.0
2018-Apr-21 09:59N 51°31' W 002°42'0 0.0
2018-Apr-21 09:29N 51°31' W 002°42'0 1.0
2018-Apr-21 09:00N 51°30' W 002°43'0 0.4
2018-Apr-21 08:30N 51°30' W 002°43'2 3.3
2018-Apr-21 08:00N 51°30' W 002°46'612.3
2018-Apr-21 07:30N 51°28' W 002°54'911.8
2018-Apr-21 06:46N 51°22' W 003°06'511.6
2018-Apr-21 06:20N 51°21' W 003°13'11 1.9
2018-Apr-21 00:37N 51°21' W 003°31'20 3.3
2018-Apr-20 18:28N 51°24' W 004°03'911.9
2018-Apr-20 17:41N 51°25' W 004°17'411.5
2018-Apr-20 17:19N 51°26' W 004°24'311.1
2018-Apr-20 17:00N 51°27' W 004°30'510.5
2018-Apr-20 16:30N 51°27' W 004°38'5 9.8
2018-Apr-20 16:01N 51°28' W 004°46'5 9.2
2018-Apr-20 15:30N 51°29' W 004°53'5 9.7
2018-Apr-20 15:01N 51°30' W 005°01'5 9.9
2018-Apr-20 14:30N 51°31' W 005°09'5 9.6
2018-Apr-20 14:00N 51°32' W 005°16'5 9.1
2018-Apr-20 13:30N 51°34' W 005°23'4 8.3
2018-Apr-20 13:00N 51°35' W 005°29'4 7.1
2018-Apr-20 12:30N 51°36' W 005°35'5 7.2
2018-Apr-20 11:52N 51°37' W 005°42'26 5.7
2018-Apr-20 07:17N 52°02' W 005°49'3 9.1
2018-Apr-20 06:55N 52°06' W 005°47'4 9.7
2018-Apr-20 06:30N 52°09' W 005°45'510.3
2018-Apr-20 06:00N 52°14' W 005°43'3411.6
2018-Apr-20 03:06N 52°46' W 005°26'110.9
2018-Apr-20 03:00N 52°47' W 005°25'510.4
2018-Apr-20 02:30N 52°52' W 005°22'83 8.3
2018-Apr-19 16:34N 54°15' W 005°16'1 8.5
2018-Apr-19 16:27N 54°16' W 005°16'4 8.3
2018-Apr-19 16:00N 54°20' W 005°16'4 8.4
2018-Apr-19 15:30N 54°24' W 005°16'4 8.0
2018-Apr-19 15:00N 54°28' W 005°15'4 7.7
2018-Apr-19 14:30N 54°32' W 005°15'4 7.5
2018-Apr-19 14:01N 54°35' W 005°16'4 8.5
2018-Apr-19 13:31N 54°38' W 005°21'4 8.9
2018-Apr-19 13:00N 54°41' W 005°27'4 8.9
2018-Apr-19 12:30N 54°43' W 005°34'5 9.1
2018-Apr-19 12:00N 54°43' W 005°42'2 3.2
2018-Apr-19 11:28N 54°43' W 005°45'0 0.0
2018-Apr-19 10:58N 54°43' W 005°45'0 0.0
2018-Apr-19 10:28N 54°43' W 005°45'0 0.0
2018-Apr-19 09:58N 54°43' W 005°45'0 0.0
2018-Apr-19 09:28N 54°43' W 005°45'0 0.0
2018-Apr-19 08:58N 54°43' W 005°45'0 0.0
2018-Apr-19 08:28N 54°43' W 005°45'0 0.0
2018-Apr-19 07:58N 54°43' W 005°45'0 0.0
2018-Apr-19 07:28N 54°43' W 005°45'0 0.0
2018-Apr-19 06:58N 54°43' W 005°45'0 0.0
2018-Apr-19 06:28N 54°43' W 005°45'0 0.0
2018-Apr-19 05:58N 54°43' W 005°45'0 0.0
2018-Apr-19 05:28N 54°43' W 005°45'0 1.0
2018-Apr-19 05:01N 54°43' W 005°44'2 3.2
2018-Apr-19 04:31N 54°43' W 005°41'1 2.6
2018-Apr-19 03:58N 54°41' W 005°41'0 0.1
2018-Apr-19 03:28N 54°41' W 005°41'0 0.1
2018-Apr-19 02:58N 54°41' W 005°41'0 0.0
2018-Apr-19 02:28N 54°41' W 005°41'0 0.1
2018-Apr-19 01:58N 54°41' W 005°41'0 0.1
2018-Apr-19 01:28N 54°41' W 005°41'0 0.0
2018-Apr-19 00:58N 54°41' W 005°41'0 0.0
2018-Apr-19 00:28N 54°41' W 005°41'0 0.0
2018-Apr-18 23:58N 54°41' W 005°41'0 0.1
2018-Apr-18 23:28N 54°41' W 005°41'0 0.0
2018-Apr-18 22:58N 54°41' W 005°41'0 0.0
2018-Apr-18 22:28N 54°41' W 005°41'0 0.1
2018-Apr-18 21:58N 54°41' W 005°41'0 0.0
2018-Apr-18 21:28N 54°41' W 005°41'0 0.1
2018-Apr-18 20:58N 54°41' W 005°41'0 0.1
2018-Apr-18 20:28N 54°41' W 005°41'0 0.1
2018-Apr-18 19:58N 54°41' W 005°41'0 0.1
2018-Apr-18 19:28N 54°41' W 005°41'0 0.1
2018-Apr-18 18:58N 54°41' W 005°41'0 0.0
2018-Apr-18 18:28N 54°41' W 005°41'0 0.1
2018-Apr-18 17:58N 54°41' W 005°41'0 0.7
2018-Apr-18 17:30N 54°42' W 005°41'4 7.8
2018-Apr-18 17:00N 54°45' W 005°38'5 9.2
2018-Apr-18 16:30N 54°49' W 005°35'4 7.1
2018-Apr-18 15:58N 54°53' W 005°32'  
2018-Apr-13 10:07N 55°15' W 005°58'1 8.4
2018-Apr-13 10:00N 55°15' W 005°59'5 9.2
2018-Apr-13 09:30N 55°19' W 006°03'6 9.0
2018-Apr-13 08:51N 55°22' W 006°12'3 9.5
2018-Apr-13 08:30N 55°23' W 006°18'510.1
2018-Apr-13 08:00N 55°24' W 006°26'510.3
2018-Apr-13 07:30N 55°26' W 006°35'510.5
2018-Apr-13 07:00N 55°27' W 006°44'510.7
2018-Apr-13 06:30N 55°28' W 006°53'610.7
2018-Apr-13 05:55N 55°30' W 007°04'610.0
2018-Apr-13 05:21N 55°32' W 007°13'4 9.7
2018-Apr-13 04:55N 55°31' W 007°21'7 9.6
2018-Apr-13 04:12N 55°29' W 007°32'2 9.2
2018-Apr-13 03:59N 55°29' W 007°36'6 9.0
2018-Apr-13 03:18N 55°27' W 007°46'3 9.0
2018-Apr-13 02:59N 55°26' W 007°51'6 9.0
2018-Apr-13 02:19N 55°24' W 008°01'3 8.8
2018-Apr-13 01:59N 55°23' W 008°06'4 8.7
2018-Apr-13 01:29N 55°22' W 008°13'4 8.7
2018-Apr-13 01:00N 55°21' W 008°20'5 8.7
2018-Apr-13 00:24N 55°19' W 008°29'48 8.7
2018-Apr-12 18:57N 54°47' W 009°31'4 8.7
2018-Apr-12 18:30N 54°44' W 009°36'4 8.6
2018-Apr-12 18:00N 54°41' W 009°41'14 8.4
2018-Apr-12 16:16N 54°32' W 009°60'10 8.2
2018-Apr-12 15:03N 54°25' W 010°13'1 8.6
2018-Apr-12 14:59N 54°25' W 010°13'5 8.6
2018-Apr-12 14:23N 54°21' W 010°20'5 8.6
2018-Apr-12 13:48N 54°16' W 010°23'4 8.9
2018-Apr-12 13:23N 54°13' W 010°23'4 8.8
2018-Apr-12 12:57N 54°09' W 010°25'4 8.8
2018-Apr-12 12:30N 54°05' W 010°26'5 9.2
2018-Apr-12 11:55N 53°60' W 010°27'4 8.8
2018-Apr-12 11:30N 53°56' W 010°28'4 8.9
2018-Apr-12 11:00N 53°52' W 010°29'4 8.5
2018-Apr-12 10:30N 53°47' W 010°30'4 8.5
2018-Apr-12 10:00N 53°43' W 010°31'4 8.6
2018-Apr-12 09:30N 53°39' W 010°32'4 8.7
2018-Apr-12 09:00N 53°35' W 010°31'5 8.7
2018-Apr-12 08:29N 53°30' W 010°30'5 9.0
2018-Apr-12 07:53N 53°25' W 010°29'5 8.7
2018-Apr-12 07:21N 53°20' W 010°27'3 8.4
2018-Apr-12 06:57N 53°18' W 010°24'4 9.0
2018-Apr-12 06:30N 53°15' W 010°19'5 8.8
2018-Apr-12 05:54N 53°12' W 010°12'4 9.0
2018-Apr-12 05:29N 53°12' W 010°06'6 9.0
2018-Apr-12 04:47N 53°12' W 009°55'3 8.9
2018-Apr-12 04:30N 53°11' W 009°51'  

Dump ship's entire track history